You are here:
  • Home »
  • Tender »
  • Open Tender Enquiry

Open Tender Enquiry

5000-4901 4900-4801 4800-4701 4700-4601 4600-4501 4500-4401 4400-4301 4300-4201 4200-4101
4100-4001 4000-3901 3900-3801 3800-3701 3700-3601 3600-3501 3500-3401 3400-3301
3300-3201 3200-3101 3100-3001 3000-2901 2900-2801 2800-2701 2700-2601 2600-2501
2500-2401 2400-2301 2300-2201 2200-2101 2100-2001 2000-1901 1900-1801
1800-1701 1700-1601 1600-1501 1500-1401 1400-1301 1300-1201 1200-1101 1100-1001
1000-901 900-801 800-701 700-601 600-501 500-401 400-301 300-201
200-101 100-1 1300-1251 1250-1201 1200-1151 1150-1101 1100-1051 1050-1001
1000-951 950-901 900-851 850-801 800-751 750-701 700-651 650-601
600-551 550-501 500-451 450-401 400-351 350-301 300-251 250-201
200-151 150-101 100-51 50-01

Sl.No. Enquiry No. Date Due on Short Description
4801 1- PE180640-1 05.05.2018 01.06.2018 Pedestal fan
4802 2- PE180619-1 03.05.2018 01.06.2018 Tyres
4803 2- PE180631-1 05.05.2018 05.06.2018 Polypropylene Carboy
4804 2- PE180632-1 05.05.2018 05.06.2018 Flocculants dosing pumps along with motor
4805 3- PE180625-1 03.05.2018 01.06.2018 Delicate task wipers
4806 3- PE180630-1 05.05.2018 05.06.2018 ‘O’ Ring for filter element
4807 3- PE180637-1 05.05.2018 22.05.2018 HERO Electric bike
4808 1-PE180469 Corrigendum-1 01.05.2018 15.05.2018 NO & NC contacts
4809 1- PE180641-1 05.05.2018 05.06.2018 Current transducer/Voltage transducer/Ammete/Volt meter
4810 1- PE180643-1 05.05.2018 05.06.2018 Electronic Bell/Buzzer/Hooter
4811 1- PE180652-1 05.05.2018 05.06.2018 Spares for Flocculant Dosing pumps
4812 1- PE180653-1 06.05.2018 05.06.2018 Indication Lamps, Switches, Terminal Blocks for 132KV/6.6kv Control panels
4813 1- PE180676-1 08.05.2018 12.06.2018 Permanent Lubricated single phase A.C.Motor with fan
4814 1- PE180679-1 08.05.2018 12.06.2018 Lighting Transformer
4815 1- PE180681-1 08.05.2018 12.06.2018 3 Phase Squirrel cage induction motor
4816 1- PE180682-1 08.05.2018 12.06.2018 Fuse Fail Indicator Grid resistance type air cooled gridresistance
4817 1- PE180683-1 08.05.2018 12.06.2018 Capacitor bank for vf -3000 fan
4818 1- PE180684-1 08.05.2018 15.06.2018 L.T.Panel Switch gear
4819 1- PE180685-1 08.05.2018 15.06.2018 Black Coloured rough dust
4820 1- PE180686-1 09.05.2018 15.06.2018 3-Phase Squirrel cage induction motor
4821 1- PE180688-1 09.05.2018 15.06.2018 Earth Leakage relay/Ammeter
4822 2- PE180603-1 02.05.2018 01.06.2018 bag Filter fan burnt lime crueling plant bag houre
4823 2- PE180611-1 03.05.2018 01.06.2018 Tyres (Front & Rear)
4824 2- PE180612-1 03.05.2018 01.06.2018 Mine water pond pump Make Matherplatt/kirloskar/Johnson/KSB
4825 2- PE180614-1 03.05.2018 01.06.2018 Spares gear box for leach repulper tank agitator
4826 2- PE180651-1 05.05.2018 05.06.2018 Spares for Ball mill and Rod mill
4827 2- PE180678-1 08.05.2018 12.06.2018 1000 ml plastic lined cap type bottles
4828 2- PE180687-1 09.05.2018 15.06.2018 Plain rubber sheet of thicknes 6mm natural rubber shore A45+/- 5
4829 2- PE180699 10.05.2018 01.06.2018 Silica Crucible
4830 2- PE180702-1 10.05.2018 12.06.2018 Hydraulic moter
4831 2- PE180703-1- 10.05.2018 01.06.2018 Standard s for Atomic absorption spectroscopy(AAS)
4832 2- PE180704-1 10.05.2018 12.06.2018 Light meter, Lux meter/Metravi brand Digital sound levelmeter
4833 3- PE180613-1 03.05.2018 01.06.2018 Synthetic paint
4834 3- PE180644-1 05.05.2018 05.06.2018 Grinding machines.wheels,Cutting wheels
4835 3- PE180675-1 08.05.2018 12.06.2018 Clutch Disc and cove Assembly
4836 3- PE180677-1 08.05.2018 12.06.2018 Hydra HY-12 (Escorts) Spares
4837 3- PE180680-1 08.05.2018 12.06.2018 Variable Frequency Drive
4838 3- PE180689-1 09.05.2018 15.06.2018 Forklift Spares, Make Godrej
4839 2/ PE180320/1 26/04/2018 11/06/2018 SPARES FOR KDP PUMP
4840 2/ PE180356/1 08/05/2018 11/06/2018 RUBBER WASHER
4841 2/ PE180359/1 04/05/2018 11/06/2018 ENDURA PLATE
4842 2/ PE180360/1 04/05/2018 11/06/2018 PEDESTAL BEARING
4843 2/ PE180361/1 04/05/2018 11/06/2018 RACK CLASSIFIER SPARES
4844 2/ PE180362/1 04/05/2018 11/06/2018 RTD ASSEMBLY
4845 2/ PE180363/1 04/05/2018 11/06/2018 GLAND PACKING
4846 2/ PE180364/1 04/05/2018 11/06/2018 SPARE FOR ROTARY DRYER
4847 2/ PE180365/1 04/05/2018 11/06/2018 DIAPHRAGM VALVE
4848 2/ PE180378/1 08/05/2018 11/06/2018 GI BEND
4849 2/ PE180413/1 08/05/2018 11/06/2018 CHAULKING ROPE
4850 2/ PE180721/8 03/05/2018 11/06/2018 JUBILEE CLAMP
4851 2/ PE180722/8 04/05/2018 11/06/2018 PVC HOSE PIPE
4852 2/ PE180723/8 04/05/2018 11/06/2018 RUBBER BELLOW
4853 2/ PE180735/8 08/05/2018 11/06/2018 HELI FLEX PIPE
4854 2/ PE180747/8 04/05/2018 11/06/2018 SPARE FOR DIAPHRAGM VALVE
4855 2/ PE180764/8 08/05/2018 11/06/2018 SPARE FOR COMPRESSOR
4856 2/ PE180777/8 08/05/2018 11/06/2018 SPARE FOR PCB ASSEMBLY
4857 2/ PE180779/8 08/05/2018 11/06/2018 METALLIC HOSE
4858 2/ PE180781/8 04/05/2018 11/06/2018 PUMP
4859 2/ PE180803/8 08/05/2018 11/06/2018 SPARE FOR THICKENER
4860 2/ PE180807/8 08/05/2018 11/06/2018 SPRAY NOZZLE
4861 3/ PE180599/1 08/05/2018 11/06/2018 PENCIL CUTTER OMEGA
4862 3/ PE180922/8 08/05/2018 11/06/2018 POWER COOL PRE MIX
4863 3/ PE180508/1 08/05/2018 11/06/2018 G.I.BEND
4864 3/ PE181008/8 08/05/2018 11/06/2018 HYDRAULIC HOSE FITTINGS
4865 3/ PE180923/8 08/05/2018 11/06/2018 PIN
4866 3/ PE180227/7 08/05/2018 11/06/2018 SPACER SLEEVE
4867 3/ PE180226/7 08/05/2018 11/06/2018 RELAY
4868 3/ PE180940/8 08/05/2018 11/06/2018 SOCKET SPANNER
4869 3/ PE180228/7 08/05/2018 11/06/2018 LITHIUM BASE GREASE
4870 3/ PE180375/1 19/04/2018 06/06/2018 ENGINE OIL
4871 3/ PE180972/8 08/05/2018 11/06/2018 AXLE OIL
4872 3/ PE181032/8 08/05/2018 11/06/2018 OIL SEAL
4873 3/ PE180600/1 08/05/2018 11/06/2018 FABRICATION OF VAN BODY
4874 3/ PE181073/8 08/05/2018 11/06/2018 RUSTOLINE
4875 3/ PE180971/8 03/05/2018 06/06/2018 HYDRAULIC RETURN FILTER
4876 3/ PE180990/8 03/05/2018 06/06/2018 FLUID ROTO COMPRESSOR OIL
4877 3/ PE180243/8 03/05/2018 06/06/2018 FUEL LINE HOSE
4878 3/ PE180986/8 03/05/2018 06/06/2018 G.I.PIPE
4879 1/ PE180624/1 16.05.2018 18.06.2018 Desktop Computer
4880 1/ PE180625/1 16.05.2018 18.06.2018 Aluminium Single Ladder
4881 1/ PE180627/1 16.05.2018 18.06.2018 W.C.Pan
4882 1/ PE180628/1 16.05.2018 18.06.2018 Battery
4883 1/ PE180631/1 16.05.2018 18.06.2018 Lamp
4884 1/ PE180632/1 16.05.2018 18.06.2018 Al.Wall Extension Ladder
4885 1/ PE180633/1 16.05.2018 18.06.2018 Laptop
4886 1/ PE180634/1 16.05.2018 18.06.2018 NiMh Battery
4887 1/ PE180635/1 16.05.2018 18.06.2018 Printing Items
4888 1/ PE180636/1 16.05.2018 18.06.2018 Tumbler Switch & Socket
4889 1/ PE180658/1 18.05.2018 23.05.2018 Medical Oxygen
4890 1/ PE180624/1 16.05.2018 18.06.2018 Desktop Computer
4891 1/ PE180625/1 16.05.2018 18.06.2018 Aluminium Single Ladder
4892 1/ PE180627/1 16.05.2018 18.06.2018 W.C.Pan
4893 1/ PE180628/1 16.05.2018 18.06.2018 Battery
4894 1/ PE180631/1 16.05.2018 18.06.2018 Lamp
4895 1/ PE180632/1 16.05.2018 18.06.2018 Al.Wall Extension Ladder
4896 1/ PE180633/1 16.05.2018 18.06.2018 Laptop
4897 1/ PE180634/1 16.05.2018 18.06.2018 NiMh Battery
4898 1/ PE180635/1 16.05.2018 18.06.2018 Printing Items
4899 1/ PE180636/1 16.05.2018 18.06.2018 Tumbler Switch & Socket
4900 1/ PE180611/1 16.05.2018 20.06.2018 Split Pin